createdAt,value
2018-08-18T00:01:16.539Z,5.97
2018-08-18T00:06:21.208Z,4.27
2018-08-18T00:11:26.581Z,5.27
2018-08-18T00:16:35.724Z,4.73
2018-08-18T00:21:39.259Z,5.83
2018-08-18T00:26:42.969Z,5.20
2018-08-18T00:31:47.448Z,5.57
2018-08-18T00:36:51.684Z,3.87
2018-08-18T00:41:55.480Z,5.00
2018-08-18T00:46:59.262Z,6.23
2018-08-18T00:52:02.849Z,5.37
2018-08-18T00:57:20.410Z,4.70
2018-08-18T01:02:23.764Z,4.40
2018-08-18T01:07:28.116Z,8.23
2018-08-18T01:12:31.450Z,4.50
2018-08-18T01:17:34.590Z,4.70
2018-08-18T01:22:37.785Z,6.60
2018-08-18T01:27:49.960Z,4.80
2018-08-18T01:32:53.269Z,6.70
2018-08-18T01:37:56.726Z,5.47
2018-08-18T01:43:00.114Z,4.47
2018-08-18T01:48:03.648Z,5.23
2018-08-18T01:53:07.542Z,6.10
2018-08-18T01:58:11.061Z,6.70
2018-08-18T02:03:14.402Z,5.90
2018-08-18T02:08:17.663Z,5.73
2018-08-18T02:13:21.097Z,5.70
2018-08-18T02:18:24.344Z,6.63
2018-08-18T02:23:27.548Z,6.03
2018-08-18T02:28:31.266Z,6.37
2018-08-18T02:33:34.567Z,4.33
2018-08-18T02:38:38.744Z,3.30
2018-08-18T02:43:41.990Z,4.50
2018-08-18T02:48:45.564Z,5.30
2018-08-18T02:53:48.786Z,4.80
2018-08-18T02:59:01.419Z,8.83
2018-08-18T03:04:07.277Z,6.07
2018-08-18T03:09:11.960Z,4.43
2018-08-18T03:14:15.160Z,4.10
2018-08-18T03:19:18.399Z,5.13
2018-08-18T03:24:25.176Z,3.67
2018-08-18T03:29:29.826Z,3.70
2018-08-18T03:34:33.205Z,4.30
2018-08-18T03:39:36.344Z,4.60
2018-08-18T03:44:44.954Z,5.43
2018-08-18T03:49:48.546Z,3.57
2018-08-18T03:54:51.800Z,3.70
2018-08-18T03:59:54.965Z,4.43
2018-08-18T04:05:02.634Z,5.67
2018-08-18T04:10:07.945Z,5.13
2018-08-18T04:15:11.492Z,4.50
2018-08-18T04:20:15.901Z,4.13
2018-08-18T04:25:19.180Z,4.90
2018-08-18T04:30:22.791Z,6.50
2018-08-18T04:35:27.901Z,8.63
2018-08-18T04:40:31.520Z,4.20
2018-08-18T04:45:34.713Z,5.20
2018-08-18T04:50:38.083Z,4.07
2018-08-18T04:55:41.327Z,4.80
2018-08-18T05:00:44.652Z,3.20
2018-08-18T05:05:47.946Z,5.63
2018-08-18T05:10:51.278Z,4.63
2018-08-18T05:15:54.644Z,12.93
2018-08-18T05:20:58.088Z,8.50
2018-08-18T05:26:01.666Z,6.80
2018-08-18T05:31:04.837Z,3.80
2018-08-18T05:36:08.891Z,4.53
2018-08-18T05:41:12.626Z,4.30
2018-08-18T05:46:16.193Z,3.30
2018-08-18T05:51:19.399Z,4.87
2018-08-18T05:56:22.950Z,7.00
2018-08-18T06:01:37.766Z,4.87
2018-08-18T06:06:41.744Z,5.30
2018-08-18T06:11:45.327Z,3.60
2018-08-18T06:16:48.580Z,3.73
2018-08-18T06:21:52.321Z,5.00
2018-08-18T06:26:56.015Z,4.80
2018-08-18T06:32:01.928Z,4.33
2018-08-18T06:37:05.312Z,4.37
2018-08-18T06:42:18.930Z,7.70
2018-08-18T06:47:22.147Z,6.53
2018-08-18T06:52:25.608Z,9.00
2018-08-18T06:57:41.039Z,11.03
2018-08-18T07:02:44.516Z,5.67
2018-08-18T07:07:49.366Z,6.50
2018-08-18T07:12:54.922Z,6.80
2018-08-18T07:17:58.326Z,6.77
2018-08-18T07:23:01.634Z,5.00
2018-08-18T07:28:09.539Z,7.50
2018-08-18T07:33:12.975Z,9.67
2018-08-18T07:38:17.309Z,8.00
2018-08-18T07:43:22.567Z,7.80
2018-08-18T07:48:25.881Z,7.03
2018-08-18T07:53:29.180Z,10.47
2018-08-18T07:58:32.565Z,4.93
2018-08-18T08:03:35.801Z,6.67
2018-08-18T08:08:44.660Z,5.73
2018-08-18T08:13:48.239Z,6.00
2018-08-18T08:18:51.534Z,4.67
2018-08-18T08:23:54.953Z,3.13
2018-08-18T08:28:58.387Z,5.20
2018-08-18T08:34:02.048Z,6.30
2018-08-18T08:39:06.179Z,16.90
2018-08-18T08:44:09.761Z,11.03
2018-08-18T08:49:13.845Z,7.60
2018-08-18T08:54:17.447Z,7.90
2018-08-18T08:59:20.782Z,5.37
2018-08-18T09:04:24.074Z,6.10
2018-08-18T09:09:27.497Z,5.67
2018-08-18T09:14:30.796Z,6.27
2018-08-18T09:19:34.318Z,8.30
2018-08-18T09:24:37.835Z,9.50
2018-08-18T09:29:44.629Z,4.23
2018-08-18T09:34:52.231Z,5.03
2018-08-18T09:39:55.606Z,5.57
2018-08-18T09:44:58.902Z,5.13
2018-08-18T09:50:02.584Z,4.90
2018-08-18T09:55:05.940Z,5.27
2018-08-18T10:00:13.742Z,3.93
2018-08-18T10:05:17.387Z,7.20
2018-08-18T10:10:20.724Z,4.70
2018-08-18T10:15:24.747Z,4.17
2018-08-18T10:20:28.274Z,6.10
2018-08-18T10:25:31.645Z,7.27
2018-08-18T10:30:34.937Z,6.80
2018-08-18T10:35:38.174Z,5.63
2018-08-18T10:40:41.466Z,4.87
2018-08-18T10:45:45.774Z,5.07
2018-08-18T10:51:00.660Z,14.73
2018-08-18T10:56:04.437Z,7.20
2018-08-18T11:01:07.878Z,5.77
2018-08-18T11:06:11.727Z,7.50
2018-08-18T11:11:18.582Z,5.83
2018-08-18T11:16:22.156Z,4.60
2018-08-18T11:21:29.669Z,5.87
2018-08-18T11:26:36.691Z,12.23
2018-08-18T11:31:39.940Z,5.53
2018-08-18T11:36:59.366Z,4.63
2018-08-18T11:42:02.634Z,8.60
2018-08-18T11:47:06.722Z,4.77
2018-08-18T11:52:10.675Z,6.97
2018-08-18T11:57:14.184Z,5.40
2018-08-18T12:02:17.757Z,6.93
2018-08-18T12:07:21.210Z,3.00
2018-08-18T12:12:25.487Z,4.83
2018-08-18T12:17:28.822Z,4.40
2018-08-18T12:22:32.821Z,7.03
2018-08-18T12:27:36.163Z,3.47
2018-08-18T12:32:39.373Z,6.70
2018-08-18T12:37:42.690Z,4.80
2018-08-18T12:42:46.024Z,9.63
2018-08-18T12:48:01.274Z,4.57
2018-08-18T12:53:04.551Z,4.73
2018-08-18T12:58:08.031Z,5.50
2018-08-18T13:03:14.970Z,8.90
2018-08-18T13:08:18.181Z,4.33
2018-08-18T13:13:21.749Z,7.50
2018-08-18T13:18:25.330Z,5.23
2018-08-18T13:23:29.193Z,5.63
2018-08-18T13:28:33.633Z,3.83
2018-08-18T13:33:40.832Z,3.10
2018-08-18T13:38:44.726Z,6.90
2018-08-18T13:43:48.304Z,5.77
2018-08-18T13:49:02.337Z,5.80
2018-08-18T13:54:05.570Z,5.20
2018-08-18T13:59:08.977Z,5.93
2018-08-18T14:04:19.001Z,14.17
2018-08-18T14:09:22.690Z,16.47
2018-08-18T14:14:26.116Z,12.83
2018-08-18T14:19:29.485Z,19.70
2018-08-18T14:24:34.204Z,11.40
2018-08-18T14:29:37.525Z,11.43
2018-08-18T14:34:41.499Z,9.00
2018-08-18T14:39:44.824Z,13.23
2018-08-18T14:44:49.151Z,11.73
2018-08-18T14:50:06.393Z,9.93
2018-08-18T14:55:09.886Z,6.33
2018-08-18T15:00:13.245Z,10.00
2018-08-18T15:05:16.516Z,7.50
2018-08-18T15:10:36.664Z,11.73
2018-08-18T15:15:40.459Z,5.30
2018-08-18T15:20:44.330Z,7.47
2018-08-18T15:25:48.498Z,6.10
2018-08-18T15:30:55.189Z,7.43
2018-08-18T15:35:58.916Z,6.00
2018-08-18T15:41:02.204Z,10.57
2018-08-18T15:46:06.392Z,11.23
2018-08-18T15:51:10.233Z,5.73
2018-08-18T15:56:13.633Z,5.67
2018-08-18T16:01:17.224Z,8.93
2018-08-18T16:06:20.586Z,5.83
2018-08-18T16:11:24.645Z,7.20
2018-08-18T16:16:27.916Z,10.20
2018-08-18T16:21:33.650Z,7.13
2018-08-18T16:26:38.077Z,11.20
2018-08-18T16:31:41.786Z,7.13
2018-08-18T16:36:46.252Z,8.50
2018-08-18T16:41:49.548Z,5.00
2018-08-18T16:46:53.093Z,6.07
2018-08-18T16:51:59.442Z,6.50
2018-08-18T16:57:03.236Z,8.90
2018-08-18T17:02:09.955Z,5.67
2018-08-18T17:07:26.395Z,5.03
2018-08-18T17:12:30.765Z,6.50
2018-08-18T17:17:34.241Z,11.23
2018-08-18T17:22:37.874Z,7.80
2018-08-18T17:27:41.170Z,7.50
2018-08-18T17:32:44.441Z,9.27
2018-08-18T17:37:47.827Z,7.77
2018-08-18T17:42:51.164Z,6.90
2018-08-18T17:47:54.487Z,9.47
2018-08-18T17:52:57.818Z,8.43
2018-08-18T17:58:01.729Z,12.70
2018-08-18T18:03:07.018Z,10.10
2018-08-18T18:08:10.543Z,9.83
2018-08-18T18:13:19.603Z,20.80
2018-08-18T18:18:24.732Z,10.30
2018-08-18T18:23:28.525Z,8.90
2018-08-18T18:28:32.091Z,12.07
2018-08-18T18:33:35.482Z,14.60
2018-08-18T18:39:00.633Z,9.10
2018-08-18T18:44:05.096Z,8.77
2018-08-18T18:49:24.037Z,9.10
2018-08-18T18:54:27.501Z,10.40
2018-08-18T18:59:30.960Z,9.30
2018-08-18T19:04:34.790Z,10.10
2018-08-18T19:09:38.308Z,13.83
2018-08-18T19:14:41.760Z,9.70
2018-08-18T19:19:45.082Z,13.50
2018-08-18T19:24:48.395Z,12.33
2018-08-18T19:29:51.771Z,18.00
2018-08-18T19:34:55.665Z,11.43
2018-08-18T19:39:59.301Z,11.00
2018-08-18T19:45:02.547Z,11.03
2018-08-18T19:50:08.197Z,8.57
2018-08-18T19:55:12.426Z,24.23
2018-08-18T20:00:21.305Z,13.20
2018-08-18T20:05:24.993Z,13.53
2018-08-18T20:10:29.005Z,19.83
2018-08-18T20:15:32.647Z,9.63
2018-08-18T20:20:37.354Z,18.03
2018-08-18T20:25:40.874Z,27.20
2018-08-18T20:30:44.218Z,22.90
2018-08-18T20:35:47.925Z,15.47
2018-08-18T20:40:51.563Z,14.73
2018-08-18T20:45:56.006Z,17.00
2018-08-18T20:50:59.417Z,15.77
2018-08-18T20:56:03.844Z,13.60
2018-08-18T21:01:07.232Z,20.23
2018-08-18T21:06:12.722Z,13.33
2018-08-18T21:11:16.524Z,13.47
2018-08-18T21:16:21.091Z,15.50
2018-08-18T21:21:27.485Z,12.10
2018-08-18T21:26:31.702Z,19.63
2018-08-18T21:31:37.325Z,22.33
2018-08-18T21:36:42.507Z,18.27
2018-08-18T21:41:46.961Z,16.60
2018-08-18T21:46:50.215Z,13.03
2018-08-18T21:51:54.055Z,16.30
2018-08-18T21:56:57.893Z,13.77
2018-08-18T22:02:01.455Z,18.00
2018-08-18T22:07:04.858Z,13.80
2018-08-18T22:12:08.099Z,13.60
2018-08-18T22:17:11.429Z,15.63
2018-08-18T22:22:19.889Z,13.77
2018-08-18T22:27:23.199Z,13.43
2018-08-18T22:32:26.440Z,14.67
2018-08-18T22:37:29.848Z,13.07
2018-08-18T22:42:33.303Z,12.67
2018-08-18T22:47:36.577Z,18.40
2018-08-18T22:52:39.928Z,18.03
2018-08-18T22:57:47.770Z,12.17
2018-08-18T23:02:51.204Z,12.20
2018-08-18T23:07:55.952Z,12.90
2018-08-18T23:12:59.921Z,13.30
2018-08-18T23:18:03.187Z,11.77
2018-08-18T23:23:06.567Z,16.50
2018-08-18T23:28:09.898Z,12.83
2018-08-18T23:33:13.153Z,14.73
2018-08-18T23:38:16.520Z,13.80
2018-08-18T23:43:20.006Z,11.23
2018-08-18T23:48:23.290Z,11.43
2018-08-18T23:53:26.602Z,12.10
2018-08-18T23:58:30.413Z,11.10
